Church Creek, Maryland
Current Conditions -  °F | °C
As of 10:35 AM on Friday 24 Oct 2014 (Local Time) from KCGE Reporting Station
Clear Clear  
Wind Chill: 61°   Ceiling: Unl
Heat Index: 61°   Visibility: 10mi
Dew Point: 45°   Wind: 16mph
Humidity: 55%   Direction: 310°NW
Pressure: 29.93"   Gusts: 24mph
Location:  38.5°N, 76.15°W
Report Text: KCGE 241435Z AUTO 31014G21KT 10SM CLR 16/07 A2993 RMK AO1
Loading
Personal Weather Stations






























Interactive Weather Map
Tropical Storm Tracking
New forecast layout! Learn more

10-Day Weather Forecast

Advertisements
Track Severe Weather on mobile